sensor_id;sensor_type;location;lat;lon;timestamp;P1;durP1;ratioP1;P2;durP2;ratioP2
47167;SDS011;32931;47.778;17.806;2023-03-01T00:01:02;50.22;;;27.92;;
47167;SDS011;32931;47.778;17.806;2023-03-01T00:03:32;50.97;;;28.60;;
47167;SDS011;32931;47.778;17.806;2023-03-01T00:05:59;49.80;;;28.38;;
47167;SDS011;32931;47.778;17.806;2023-03-01T00:08:26;43.35;;;27.88;;
47167;SDS011;32931;47.778;17.806;2023-03-01T00:11:03;46.78;;;27.98;;
47167;SDS011;32931;47.778;17.806;2023-03-01T00:13:31;52.30;;;31.17;;
47167;SDS011;32931;47.778;17.806;2023-03-01T00:15:58;45.67;;;28.42;;
47167;SDS011;32931;47.778;17.806;2023-03-01T00:18:26;48.55;;;29.80;;
47167;SDS011;32931;47.778;17.806;2023-03-01T00:20:53;48.45;;;28.45;;
47167;SDS011;32931;47.778;17.806;2023-03-01T00:23:20;45.28;;;29.17;;
47167;SDS011;32931;47.778;17.806;2023-03-01T00:25:47;49.88;;;30.00;;
47167;SDS011;32931;47.778;17.806;2023-03-01T00:28:14;52.83;;;30.75;;
47167;SDS011;32931;47.778;17.806;2023-03-01T00:30:41;49.08;;;30.45;;
47167;SDS011;32931;47.778;17.806;2023-03-01T00:33:07;49.47;;;30.10;;
47167;SDS011;32931;47.778;17.806;2023-03-01T00:35:33;52.30;;;30.55;;
47167;SDS011;32931;47.778;17.806;2023-03-01T00:38:00;51.53;;;29.98;;
47167;SDS011;32931;47.778;17.806;2023-03-01T00:40:28;50.75;;;29.67;;
47167;SDS011;32931;47.778;17.806;2023-03-01T00:42:55;52.58;;;30.65;;
47167;SDS011;32931;47.778;17.806;2023-03-01T00:45:21;53.03;;;30.88;;
47167;SDS011;32931;47.778;17.806;2023-03-01T00:47:48;49.58;;;29.55;;
47167;SDS011;32931;47.778;17.806;2023-03-01T00:50:15;50.67;;;31.27;;
47167;SDS011;32931;47.778;17.806;2023-03-01T00:52:41;48.85;;;30.15;;
47167;SDS011;32931;47.778;17.806;2023-03-01T00:55:08;53.80;;;30.88;;
47167;SDS011;32931;47.778;17.806;2023-03-01T00:57:34;53.15;;;31.38;;
47167;SDS011;32931;47.778;17.806;2023-03-01T01:00:00;54.58;;;30.77;;
47167;SDS011;32931;47.778;17.806;2023-03-01T01:02:27;55.80;;;31.42;;
47167;SDS011;32931;47.778;17.806;2023-03-01T01:04:53;56.13;;;30.38;;
47167;SDS011;32931;47.778;17.806;2023-03-01T01:07:19;58.72;;;32.38;;
47167;SDS011;32931;47.778;17.806;2023-03-01T01:09:48;52.78;;;30.95;;
47167;SDS011;32931;47.778;17.806;2023-03-01T01:12:14;53.72;;;31.92;;
47167;SDS011;32931;47.778;17.806;2023-03-01T01:14:40;55.13;;;32.60;;
47167;SDS011;32931;47.778;17.806;2023-03-01T01:17:06;51.97;;;31.75;;
47167;SDS011;32931;47.778;17.806;2023-03-01T01:19:32;58.72;;;32.25;;
47167;SDS011;32931;47.778;17.806;2023-03-01T01:21:58;55.50;;;31.70;;
47167;SDS011;32931;47.778;17.806;2023-03-01T01:24:25;59.05;;;31.60;;
47167;SDS011;32931;47.778;17.806;2023-03-01T01:26:51;49.72;;;30.25;;
47167;SDS011;32931;47.778;17.806;2023-03-01T01:29:17;58.58;;;32.33;;
47167;SDS011;32931;47.778;17.806;2023-03-01T01:31:43;61.10;;;32.33;;
47167;SDS011;32931;47.778;17.806;2023-03-01T01:34:14;54.03;;;32.15;;
47167;SDS011;32931;47.778;17.806;2023-03-01T01:36:42;58.13;;;31.83;;
47167;SDS011;32931;47.778;17.806;2023-03-01T01:39:08;55.83;;;32.28;;
47167;SDS011;32931;47.778;17.806;2023-03-01T01:41:39;51.80;;;31.35;;
47167;SDS011;32931;47.778;17.806;2023-03-01T01:49:31;56.58;;;32.15;;
47167;SDS011;32931;47.778;17.806;2023-03-01T01:52:04;56.40;;;33.38;;
47167;SDS011;32931;47.778;17.806;2023-03-01T01:57:47;53.53;;;33.15;;
47167;SDS011;32931;47.778;17.806;2023-03-01T02:00:18;55.80;;;32.83;;
47167;SDS011;32931;47.778;17.806;2023-03-01T02:02:50;58.13;;;33.53;;
47167;SDS011;32931;47.778;17.806;2023-03-01T02:06:05;54.72;;;33.50;;
47167;SDS011;32931;47.778;17.806;2023-03-01T02:08:11;60.78;;;34.33;;
47167;SDS011;32931;47.778;17.806;2023-03-01T02:10:40;58.55;;;34.50;;
47167;SDS011;32931;47.778;17.806;2023-03-01T02:13:07;66.72;;;36.92;;
47167;SDS011;32931;47.778;17.806;2023-03-01T02:15:34;65.25;;;35.60;;
47167;SDS011;32931;47.778;17.806;2023-03-01T02:18:03;61.40;;;35.53;;
47167;SDS011;32931;47.778;17.806;2023-03-01T02:23:03;65.77;;;35.60;;
47167;SDS011;32931;47.778;17.806;2023-03-01T02:30:44;57.67;;;33.10;;
47167;SDS011;32931;47.778;17.806;2023-03-01T02:33:32;56.13;;;32.90;;
47167;SDS011;32931;47.778;17.806;2023-03-01T02:36:06;50.08;;;32.42;;
47167;SDS011;32931;47.778;17.806;2023-03-01T02:38:41;56.50;;;33.38;;
47167;SDS011;32931;47.778;17.806;2023-03-01T02:41:07;58.75;;;33.47;;
47167;SDS011;32931;47.778;17.806;2023-03-01T02:43:36;58.28;;;33.25;;
47167;SDS011;32931;47.778;17.806;2023-03-01T02:46:06;53.60;;;31.48;;
47167;SDS011;32931;47.778;17.806;2023-03-01T02:48:40;55.88;;;33.90;;
47167;SDS011;32931;47.778;17.806;2023-03-01T02:56:31;62.00;;;33.27;;
47167;SDS011;32931;47.778;17.806;2023-03-01T02:58:57;58.40;;;33.80;;
47167;SDS011;32931;47.778;17.806;2023-03-01T03:01:26;55.05;;;32.08;;
47167;SDS011;32931;47.778;17.806;2023-03-01T03:04:05;54.08;;;32.50;;
47167;SDS011;32931;47.778;17.806;2023-03-01T03:06:33;56.28;;;33.45;;
47167;SDS011;32931;47.778;17.806;2023-03-01T03:09:00;56.00;;;31.00;;
47167;SDS011;32931;47.778;17.806;2023-03-01T03:11:26;55.95;;;32.63;;
47167;SDS011;32931;47.778;17.806;2023-03-01T03:13:52;51.35;;;30.73;;
47167;SDS011;32931;47.778;17.806;2023-03-01T03:16:19;49.13;;;31.23;;
47167;SDS011;32931;47.778;17.806;2023-03-01T03:18:46;56.92;;;31.60;;
47167;SDS011;32931;47.778;17.806;2023-03-01T03:21:12;51.60;;;31.38;;
47167;SDS011;32931;47.778;17.806;2023-03-01T03:23:40;52.80;;;31.15;;
47167;SDS011;32931;47.778;17.806;2023-03-01T03:26:06;61.08;;;34.08;;
47167;SDS011;32931;47.778;17.806;2023-03-01T03:28:35;56.55;;;31.25;;
47167;SDS011;32931;47.778;17.806;2023-03-01T03:31:06;50.78;;;30.02;;
47167;SDS011;32931;47.778;17.806;2023-03-01T03:33:33;51.78;;;31.33;;
47167;SDS011;32931;47.778;17.806;2023-03-01T03:35:59;55.20;;;31.38;;
47167;SDS011;32931;47.778;17.806;2023-03-01T03:38:25;51.05;;;31.67;;
47167;SDS011;32931;47.778;17.806;2023-03-01T03:40:52;54.38;;;30.30;;
47167;SDS011;32931;47.778;17.806;2023-03-01T03:43:29;53.05;;;31.42;;
47167;SDS011;32931;47.778;17.806;2023-03-01T03:45:57;57.13;;;32.45;;
47167;SDS011;32931;47.778;17.806;2023-03-01T03:48:24;68.85;;;39.20;;
47167;SDS011;32931;47.778;17.806;2023-03-01T03:50:52;89.30;;;48.80;;
47167;SDS011;32931;47.778;17.806;2023-03-01T03:53:20;58.58;;;35.72;;
47167;SDS011;32931;47.778;17.806;2023-03-01T03:55:48;52.85;;;31.33;;
47167;SDS011;32931;47.778;17.806;2023-03-01T03:58:17;52.13;;;31.88;;
47167;SDS011;32931;47.778;17.806;2023-03-01T04:00:45;52.70;;;31.23;;
47167;SDS011;32931;47.778;17.806;2023-03-01T04:03:13;57.03;;;31.58;;
47167;SDS011;32931;47.778;17.806;2023-03-01T04:05:41;53.55;;;31.73;;
47167;SDS011;32931;47.778;17.806;2023-03-01T04:08:08;56.25;;;33.33;;
47167;SDS011;32931;47.778;17.806;2023-03-01T04:10:39;50.55;;;30.20;;
47167;SDS011;32931;47.778;17.806;2023-03-01T04:13:08;53.17;;;30.13;;
47167;SDS011;32931;47.778;17.806;2023-03-01T04:15:36;53.85;;;30.83;;
47167;SDS011;32931;47.778;17.806;2023-03-01T04:18:03;55.95;;;31.35;;
47167;SDS011;32931;47.778;17.806;2023-03-01T04:20:30;52.60;;;31.38;;
47167;SDS011;32931;47.778;17.806;2023-03-01T04:23:00;51.20;;;31.23;;
47167;SDS011;32931;47.778;17.806;2023-03-01T04:28:11;52.75;;;32.40;;
47167;SDS011;32931;47.778;17.806;2023-03-01T04:30:38;47.88;;;30.20;;
47167;SDS011;32931;47.778;17.806;2023-03-01T04:33:04;53.47;;;32.00;;
47167;SDS011;32931;47.778;17.806;2023-03-01T04:35:32;48.30;;;30.23;;
47167;SDS011;32931;47.778;17.806;2023-03-01T04:38:00;48.40;;;29.65;;
47167;SDS011;32931;47.778;17.806;2023-03-01T04:40:26;56.58;;;31.95;;
47167;SDS011;32931;47.778;17.806;2023-03-01T04:42:52;49.70;;;30.52;;
47167;SDS011;32931;47.778;17.806;2023-03-01T04:45:18;53.67;;;31.10;;
47167;SDS011;32931;47.778;17.806;2023-03-01T04:47:45;49.28;;;29.90;;
47167;SDS011;32931;47.778;17.806;2023-03-01T04:50:13;46.92;;;29.50;;
47167;SDS011;32931;47.778;17.806;2023-03-01T04:52:41;51.47;;;30.30;;
47167;SDS011;32931;47.778;17.806;2023-03-01T04:55:09;51.70;;;31.83;;
47167;SDS011;32931;47.778;17.806;2023-03-01T04:57:36;49.55;;;30.48;;
47167;SDS011;32931;47.778;17.806;2023-03-01T05:00:03;47.50;;;29.70;;
47167;SDS011;32931;47.778;17.806;2023-03-01T05:02:48;52.28;;;31.17;;
47167;SDS011;32931;47.778;17.806;2023-03-01T05:05:39;46.17;;;28.55;;
47167;SDS011;32931;47.778;17.806;2023-03-01T05:08:06;46.67;;;28.67;;
47167;SDS011;32931;47.778;17.806;2023-03-01T05:10:34;47.78;;;29.00;;
47167;SDS011;32931;47.778;17.806;2023-03-01T05:13:02;52.88;;;29.38;;
47167;SDS011;32931;47.778;17.806;2023-03-01T05:15:30;54.42;;;30.20;;
47167;SDS011;32931;47.778;17.806;2023-03-01T05:17:57;53.38;;;29.67;;
47167;SDS011;32931;47.778;17.806;2023-03-01T05:20:25;46.63;;;28.88;;
47167;SDS011;32931;47.778;17.806;2023-03-01T05:22:57;52.17;;;30.38;;
47167;SDS011;32931;47.778;17.806;2023-03-01T05:25:25;46.53;;;27.27;;
47167;SDS011;32931;47.778;17.806;2023-03-01T05:27:52;54.20;;;29.33;;
47167;SDS011;32931;47.778;17.806;2023-03-01T05:30:18;52.67;;;29.88;;
47167;SDS011;32931;47.778;17.806;2023-03-01T05:32:48;45.03;;;29.33;;
47167;SDS011;32931;47.778;17.806;2023-03-01T05:35:21;44.35;;;28.75;;
47167;SDS011;32931;47.778;17.806;2023-03-01T05:37:49;45.95;;;28.20;;
47167;SDS011;32931;47.778;17.806;2023-03-01T05:40:17;44.88;;;27.95;;
47167;SDS011;32931;47.778;17.806;2023-03-01T05:42:54;44.47;;;26.58;;
47167;SDS011;32931;47.778;17.806;2023-03-01T05:45:22;46.72;;;29.95;;
47167;SDS011;32931;47.778;17.806;2023-03-01T05:47:50;51.22;;;30.20;;
47167;SDS011;32931;47.778;17.806;2023-03-01T05:50:17;48.17;;;28.95;;
47167;SDS011;32931;47.778;17.806;2023-03-01T05:52:46;46.95;;;28.55;;
47167;SDS011;32931;47.778;17.806;2023-03-01T05:55:18;42.67;;;28.52;;
47167;SDS011;32931;47.778;17.806;2023-03-01T05:57:45;43.25;;;27.55;;
47167;SDS011;32931;47.778;17.806;2023-03-01T06:00:13;50.97;;;29.08;;
47167;SDS011;32931;47.778;17.806;2023-03-01T06:02:40;44.65;;;27.92;;
47167;SDS011;32931;47.778;17.806;2023-03-01T06:05:07;46.03;;;28.25;;
47167;SDS011;32931;47.778;17.806;2023-03-01T06:07:35;47.97;;;27.50;;
47167;SDS011;32931;47.778;17.806;2023-03-01T06:10:02;45.28;;;27.52;;
47167;SDS011;32931;47.778;17.806;2023-03-01T06:12:32;45.05;;;27.10;;
47167;SDS011;32931;47.778;17.806;2023-03-01T06:15:00;43.95;;;27.65;;
47167;SDS011;32931;47.778;17.806;2023-03-01T06:17:29;46.60;;;27.77;;
47167;SDS011;32931;47.778;17.806;2023-03-01T06:19:56;44.95;;;25.63;;
47167;SDS011;32931;47.778;17.806;2023-03-01T06:22:22;46.83;;;27.10;;
47167;SDS011;32931;47.778;17.806;2023-03-01T06:24:48;42.47;;;25.60;;
47167;SDS011;32931;47.778;17.806;2023-03-01T06:27:15;41.97;;;26.67;;
47167;SDS011;32931;47.778;17.806;2023-03-01T06:29:41;41.72;;;25.83;;
47167;SDS011;32931;47.778;17.806;2023-03-01T06:32:07;40.15;;;25.67;;
47167;SDS011;32931;47.778;17.806;2023-03-01T06:34:34;38.92;;;25.88;;
47167;SDS011;32931;47.778;17.806;2023-03-01T06:37:00;44.38;;;25.55;;
47167;SDS011;32931;47.778;17.806;2023-03-01T06:39:31;41.20;;;23.63;;
47167;SDS011;32931;47.778;17.806;2023-03-01T06:41:57;41.28;;;25.50;;
47167;SDS011;32931;47.778;17.806;2023-03-01T06:44:24;42.30;;;25.15;;
47167;SDS011;32931;47.778;17.806;2023-03-01T06:46:50;39.70;;;24.20;;
47167;SDS011;32931;47.778;17.806;2023-03-01T06:49:17;41.50;;;24.90;;
47167;SDS011;32931;47.778;17.806;2023-03-01T06:51:43;40.63;;;23.30;;
47167;SDS011;32931;47.778;17.806;2023-03-01T06:54:10;36.15;;;21.88;;
47167;SDS011;32931;47.778;17.806;2023-03-01T06:56:36;38.90;;;23.95;;
47167;SDS011;32931;47.778;17.806;2023-03-01T06:59:02;37.28;;;22.55;;
47167;SDS011;32931;47.778;17.806;2023-03-01T07:01:29;40.03;;;23.48;;
47167;SDS011;32931;47.778;17.806;2023-03-01T07:03:55;45.60;;;23.95;;
47167;SDS011;32931;47.778;17.806;2023-03-01T07:06:22;40.60;;;23.05;;
47167;SDS011;32931;47.778;17.806;2023-03-01T07:08:49;36.53;;;22.20;;
47167;SDS011;32931;47.778;17.806;2023-03-01T07:11:15;43.60;;;23.05;;
47167;SDS011;32931;47.778;17.806;2023-03-01T07:13:41;36.95;;;23.15;;
47167;SDS011;32931;47.778;17.806;2023-03-01T07:16:08;36.92;;;22.45;;
47167;SDS011;32931;47.778;17.806;2023-03-01T07:18:34;35.78;;;22.27;;
47167;SDS011;32931;47.778;17.806;2023-03-01T07:21:04;32.88;;;21.80;;
47167;SDS011;32931;47.778;17.806;2023-03-01T07:23:31;37.45;;;21.90;;
47167;SDS011;32931;47.778;17.806;2023-03-01T07:25:57;33.90;;;21.63;;
47167;SDS011;32931;47.778;17.806;2023-03-01T07:28:24;35.97;;;22.95;;
47167;SDS011;32931;47.778;17.806;2023-03-01T07:30:50;40.15;;;23.52;;
47167;SDS011;32931;47.778;17.806;2023-03-01T07:33:17;40.20;;;22.92;;
47167;SDS011;32931;47.778;17.806;2023-03-01T07:35:43;38.20;;;21.98;;
47167;SDS011;32931;47.778;17.806;2023-03-01T07:38:09;39.10;;;21.88;;
47167;SDS011;32931;47.778;17.806;2023-03-01T07:40:35;37.45;;;22.23;;
47167;SDS011;32931;47.778;17.806;2023-03-01T07:43:02;34.22;;;21.13;;
47167;SDS011;32931;47.778;17.806;2023-03-01T07:45:28;34.20;;;21.73;;
47167;SDS011;32931;47.778;17.806;2023-03-01T07:47:55;36.17;;;22.40;;
47167;SDS011;32931;47.778;17.806;2023-03-01T07:50:21;36.00;;;21.67;;
47167;SDS011;32931;47.778;17.806;2023-03-01T07:52:48;34.92;;;21.30;;
47167;SDS011;32931;47.778;17.806;2023-03-01T07:55:15;36.17;;;21.85;;
47167;SDS011;32931;47.778;17.806;2023-03-01T07:57:42;37.85;;;23.05;;
47167;SDS011;32931;47.778;17.806;2023-03-01T08:00:10;34.25;;;21.25;;
47167;SDS011;32931;47.778;17.806;2023-03-01T08:02:37;34.20;;;21.63;;
47167;SDS011;32931;47.778;17.806;2023-03-01T08:05:03;37.15;;;21.70;;
47167;SDS011;32931;47.778;17.806;2023-03-01T08:07:29;36.15;;;22.63;;
47167;SDS011;32931;47.778;17.806;2023-03-01T08:09:56;36.75;;;21.90;;
47167;SDS011;32931;47.778;17.806;2023-03-01T08:12:22;34.10;;;22.02;;
47167;SDS011;32931;47.778;17.806;2023-03-01T08:14:48;34.00;;;20.58;;
47167;SDS011;32931;47.778;17.806;2023-03-01T08:17:14;42.08;;;22.05;;
47167;SDS011;32931;47.778;17.806;2023-03-01T08:19:40;40.22;;;21.45;;
47167;SDS011;32931;47.778;17.806;2023-03-01T08:22:08;30.95;;;21.15;;
47167;SDS011;32931;47.778;17.806;2023-03-01T08:24:34;33.55;;;21.58;;
47167;SDS011;32931;47.778;17.806;2023-03-01T08:27:00;40.75;;;20.70;;
47167;SDS011;32931;47.778;17.806;2023-03-01T08:29:30;33.40;;;20.92;;
47167;SDS011;32931;47.778;17.806;2023-03-01T08:31:56;41.60;;;21.38;;
47167;SDS011;32931;47.778;17.806;2023-03-01T08:34:23;33.35;;;20.23;;
47167;SDS011;32931;47.778;17.806;2023-03-01T08:36:49;53.58;;;21.38;;
47167;SDS011;32931;47.778;17.806;2023-03-01T08:39:19;35.15;;;21.60;;
47167;SDS011;32931;47.778;17.806;2023-03-01T08:41:46;38.65;;;21.35;;
47167;SDS011;32931;47.778;17.806;2023-03-01T08:44:12;34.05;;;21.10;;
47167;SDS011;32931;47.778;17.806;2023-03-01T08:46:42;37.47;;;22.05;;
47167;SDS011;32931;47.778;17.806;2023-03-01T08:49:11;33.00;;;21.15;;
47167;SDS011;32931;47.778;17.806;2023-03-01T08:51:40;36.25;;;21.25;;
47167;SDS011;32931;47.778;17.806;2023-03-01T08:54:09;33.95;;;20.80;;
47167;SDS011;32931;47.778;17.806;2023-03-01T08:56:38;31.92;;;19.80;;
47167;SDS011;32931;47.778;17.806;2023-03-01T08:59:04;30.45;;;19.25;;
47167;SDS011;32931;47.778;17.806;2023-03-01T09:01:30;35.58;;;21.40;;
47167;SDS011;32931;47.778;17.806;2023-03-01T09:03:56;33.88;;;20.25;;
47167;SDS011;32931;47.778;17.806;2023-03-01T09:06:23;30.52;;;19.58;;
47167;SDS011;32931;47.778;17.806;2023-03-01T09:08:49;30.83;;;19.80;;
47167;SDS011;32931;47.778;17.806;2023-03-01T09:11:17;31.33;;;20.25;;
47167;SDS011;32931;47.778;17.806;2023-03-01T09:13:45;33.95;;;20.70;;
47167;SDS011;32931;47.778;17.806;2023-03-01T09:16:13;32.13;;;19.80;;
47167;SDS011;32931;47.778;17.806;2023-03-01T09:18:40;29.67;;;19.45;;
47167;SDS011;32931;47.778;17.806;2023-03-01T09:21:08;33.75;;;20.48;;
47167;SDS011;32931;47.778;17.806;2023-03-01T09:23:38;31.20;;;20.50;;
47167;SDS011;32931;47.778;17.806;2023-03-01T09:26:09;31.58;;;21.10;;
47167;SDS011;32931;47.778;17.806;2023-03-01T09:31:08;32.45;;;18.90;;
47167;SDS011;32931;47.778;17.806;2023-03-01T09:33:34;31.15;;;20.13;;
47167;SDS011;32931;47.778;17.806;2023-03-01T09:36:01;30.95;;;19.15;;
47167;SDS011;32931;47.778;17.806;2023-03-01T09:38:29;30.30;;;19.42;;
47167;SDS011;32931;47.778;17.806;2023-03-01T09:40:56;34.17;;;19.40;;
47167;SDS011;32931;47.778;17.806;2023-03-01T09:45:52;33.17;;;19.20;;
47167;SDS011;32931;47.778;17.806;2023-03-01T09:48:23;28.92;;;18.38;;
47167;SDS011;32931;47.778;17.806;2023-03-01T09:50:52;31.55;;;18.67;;
47167;SDS011;32931;47.778;17.806;2023-03-01T09:53:20;31.55;;;19.40;;
47167;SDS011;32931;47.778;17.806;2023-03-01T10:04:04;28.05;;;16.50;;
47167;SDS011;32931;47.778;17.806;2023-03-01T10:07:03;31.02;;;17.15;;
47167;SDS011;32931;47.778;17.806;2023-03-01T10:09:50;26.23;;;17.98;;
47167;SDS011;32931;47.778;17.806;2023-03-01T10:12:17;26.25;;;16.20;;
47167;SDS011;32931;47.778;17.806;2023-03-01T10:17:47;27.45;;;17.08;;
47167;SDS011;32931;47.778;17.806;2023-03-01T10:22:46;27.90;;;17.27;;
47167;SDS011;32931;47.778;17.806;2023-03-01T10:25:23;22.92;;;15.50;;
47167;SDS011;32931;47.778;17.806;2023-03-01T10:28:09;59.80;;;35.92;;
47167;SDS011;32931;47.778;17.806;2023-03-01T10:30:43;26.33;;;16.10;;
47167;SDS011;32931;47.778;17.806;2023-03-01T10:33:22;23.83;;;15.85;;
47167;SDS011;32931;47.778;17.806;2023-03-01T10:35:51;23.65;;;15.93;;
47167;SDS011;32931;47.778;17.806;2023-03-01T10:38:17;22.38;;;14.95;;
47167;SDS011;32931;47.778;17.806;2023-03-01T10:43:25;20.75;;;14.75;;
47167;SDS011;32931;47.778;17.806;2023-03-01T10:45:57;20.67;;;14.95;;
47167;SDS011;32931;47.778;17.806;2023-03-01T10:48:24;74.20;;;55.38;;
47167;SDS011;32931;47.778;17.806;2023-03-01T10:53:29;26.35;;;15.18;;
47167;SDS011;32931;47.778;17.806;2023-03-01T10:56:08;25.42;;;15.07;;
47167;SDS011;32931;47.778;17.806;2023-03-01T10:58:35;23.60;;;15.80;;
47167;SDS011;32931;47.778;17.806;2023-03-01T11:01:04;23.42;;;14.75;;
47167;SDS011;32931;47.778;17.806;2023-03-01T11:06:32;28.15;;;14.70;;
47167;SDS011;32931;47.778;17.806;2023-03-01T11:09:15;24.23;;;15.25;;
47167;SDS011;32931;47.778;17.806;2023-03-01T11:11:45;23.92;;;15.10;;
47167;SDS011;32931;47.778;17.806;2023-03-01T11:14:15;22.90;;;15.70;;
47167;SDS011;32931;47.778;17.806;2023-03-01T11:16:45;26.95;;;16.23;;
47167;SDS011;32931;47.778;17.806;2023-03-01T11:21:39;21.15;;;13.32;;
47167;SDS011;32931;47.778;17.806;2023-03-01T11:24:17;19.35;;;13.30;;
47167;SDS011;32931;47.778;17.806;2023-03-01T11:26:51;22.50;;;13.73;;
47167;SDS011;32931;47.778;17.806;2023-03-01T11:29:27;21.02;;;13.88;;
47167;SDS011;32931;47.778;17.806;2023-03-01T11:32:13;23.27;;;14.10;;
47167;SDS011;32931;47.778;17.806;2023-03-01T11:34:45;21.85;;;14.73;;
47167;SDS011;32931;47.778;17.806;2023-03-01T11:40:49;32.35;;;13.55;;
47167;SDS011;32931;47.778;17.806;2023-03-01T11:48:56;19.65;;;13.40;;
47167;SDS011;32931;47.778;17.806;2023-03-01T11:54:00;27.42;;;14.38;;
47167;SDS011;32931;47.778;17.806;2023-03-01T11:56:40;23.83;;;15.20;;
47167;SDS011;32931;47.778;17.806;2023-03-01T12:02:07;22.75;;;15.35;;
47167;SDS011;32931;47.778;17.806;2023-03-01T12:07:55;24.40;;;14.68;;
47167;SDS011;32931;47.778;17.806;2023-03-01T12:15:49;22.25;;;14.52;;
47167;SDS011;32931;47.778;17.806;2023-03-01T12:24:21;21.95;;;13.85;;
47167;SDS011;32931;47.778;17.806;2023-03-01T12:29:30;19.92;;;13.63;;
47167;SDS011;32931;47.778;17.806;2023-03-01T12:37:46;19.83;;;12.98;;
47167;SDS011;32931;47.778;17.806;2023-03-01T12:51:39;20.02;;;13.32;;
47167;SDS011;32931;47.778;17.806;2023-03-01T13:00:17;20.75;;;12.32;;
47167;SDS011;32931;47.778;17.806;2023-03-01T13:08:42;19.00;;;12.00;;
47167;SDS011;32931;47.778;17.806;2023-03-01T13:11:25;62.75;;;41.25;;
47167;SDS011;32931;47.778;17.806;2023-03-01T13:13:52;119.78;;;79.80;;
47167;SDS011;32931;47.778;17.806;2023-03-01T13:16:51;41.20;;;27.30;;
47167;SDS011;32931;47.778;17.806;2023-03-01T13:19:22;55.45;;;39.05;;
47167;SDS011;32931;47.778;17.806;2023-03-01T13:21:51;32.92;;;19.33;;
47167;SDS011;32931;47.778;17.806;2023-03-01T13:25:03;56.40;;;30.83;;
47167;SDS011;32931;47.778;17.806;2023-03-01T13:27:10;19.00;;;12.82;;
47167;SDS011;32931;47.778;17.806;2023-03-01T13:29:48;23.90;;;12.43;;
47167;SDS011;32931;47.778;17.806;2023-03-01T13:34:51;19.08;;;12.70;;
47167;SDS011;32931;47.778;17.806;2023-03-01T13:37:23;23.02;;;13.82;;
47167;SDS011;32931;47.778;17.806;2023-03-01T13:39:55;22.90;;;13.43;;
47167;SDS011;32931;47.778;17.806;2023-03-01T13:42:45;23.10;;;13.35;;
47167;SDS011;32931;47.778;17.806;2023-03-01T13:47:45;24.90;;;13.90;;
47167;SDS011;32931;47.778;17.806;2023-03-01T13:50:38;23.40;;;13.20;;
47167;SDS011;32931;47.778;17.806;2023-03-01T13:53:23;18.90;;;13.55;;
47167;SDS011;32931;47.778;17.806;2023-03-01T13:55:52;26.80;;;14.68;;
47167;SDS011;32931;47.778;17.806;2023-03-01T13:58:25;23.80;;;13.80;;
47167;SDS011;32931;47.778;17.806;2023-03-01T14:01:05;22.13;;;14.63;;
47167;SDS011;32931;47.778;17.806;2023-03-01T14:03:39;23.35;;;13.63;;
47167;SDS011;32931;47.778;17.806;2023-03-01T14:06:09;21.60;;;15.05;;
47167;SDS011;32931;47.778;17.806;2023-03-01T14:08:39;21.65;;;15.07;;
47167;SDS011;32931;47.778;17.806;2023-03-01T14:11:13;23.60;;;13.93;;
47167;SDS011;32931;47.778;17.806;2023-03-01T14:19:20;24.90;;;13.00;;
47167;SDS011;32931;47.778;17.806;2023-03-01T14:27:38;16.17;;;11.85;;
47167;SDS011;32931;47.778;17.806;2023-03-01T14:30:20;17.00;;;11.13;;
47167;SDS011;32931;47.778;17.806;2023-03-01T14:32:54;15.80;;;11.32;;
47167;SDS011;32931;47.778;17.806;2023-03-01T14:35:32;16.20;;;11.45;;
47167;SDS011;32931;47.778;17.806;2023-03-01T14:38:00;22.27;;;11.25;;
47167;SDS011;32931;47.778;17.806;2023-03-01T14:40:32;20.95;;;11.32;;
47167;SDS011;32931;47.778;17.806;2023-03-01T14:43:00;15.02;;;11.02;;
47167;SDS011;32931;47.778;17.806;2023-03-01T14:45:33;31.27;;;21.85;;
47167;SDS011;32931;47.778;17.806;2023-03-01T14:48:00;22.15;;;12.35;;
47167;SDS011;32931;47.778;17.806;2023-03-01T14:50:34;17.95;;;11.65;;
47167;SDS011;32931;47.778;17.806;2023-03-01T14:53:05;42.35;;;12.23;;
47167;SDS011;32931;47.778;17.806;2023-03-01T14:55:41;15.05;;;11.50;;
47167;SDS011;32931;47.778;17.806;2023-03-01T14:58:13;18.05;;;11.60;;
47167;SDS011;32931;47.778;17.806;2023-03-01T15:03:17;23.08;;;10.88;;
47167;SDS011;32931;47.778;17.806;2023-03-01T15:05:57;20.90;;;11.60;;
47167;SDS011;32931;47.778;17.806;2023-03-01T15:08:25;18.17;;;10.95;;
47167;SDS011;32931;47.778;17.806;2023-03-01T15:10:59;15.30;;;10.90;;
47167;SDS011;32931;47.778;17.806;2023-03-01T15:13:32;20.93;;;11.73;;
47167;SDS011;32931;47.778;17.806;2023-03-01T15:18:32;17.42;;;11.20;;
47167;SDS011;32931;47.778;17.806;2023-03-01T15:21:10;19.13;;;11.50;;
47167;SDS011;32931;47.778;17.806;2023-03-01T15:23:56;41.58;;;12.52;;
47167;SDS011;32931;47.778;17.806;2023-03-01T15:26:28;30.25;;;12.80;;
47167;SDS011;32931;47.778;17.806;2023-03-01T15:29:00;26.08;;;12.40;;
47167;SDS011;32931;47.778;17.806;2023-03-01T15:31:28;16.35;;;11.05;;
47167;SDS011;32931;47.778;17.806;2023-03-01T15:36:58;19.58;;;11.63;;
47167;SDS011;32931;47.778;17.806;2023-03-01T15:39:31;19.77;;;11.85;;
47167;SDS011;32931;47.778;17.806;2023-03-01T15:42:03;17.08;;;12.63;;
47167;SDS011;32931;47.778;17.806;2023-03-01T15:44:38;17.20;;;12.50;;
47167;SDS011;32931;47.778;17.806;2023-03-01T15:49:51;18.63;;;11.95;;
47167;SDS011;32931;47.778;17.806;2023-03-01T15:52:23;25.45;;;11.98;;
47167;SDS011;32931;47.778;17.806;2023-03-01T15:54:58;23.88;;;12.15;;
47167;SDS011;32931;47.778;17.806;2023-03-01T15:57:26;30.13;;;11.88;;
47167;SDS011;32931;47.778;17.806;2023-03-01T15:59:53;20.23;;;12.52;;
47167;SDS011;32931;47.778;17.806;2023-03-01T16:02:19;18.70;;;12.60;;
47167;SDS011;32931;47.778;17.806;2023-03-01T16:04:47;17.23;;;12.43;;
47167;SDS011;32931;47.778;17.806;2023-03-01T16:07:16;19.77;;;12.40;;
47167;SDS011;32931;47.778;17.806;2023-03-01T16:09:42;20.85;;;12.63;;
47167;SDS011;32931;47.778;17.806;2023-03-01T16:12:18;18.70;;;12.13;;
47167;SDS011;32931;47.778;17.806;2023-03-01T16:14:46;22.90;;;12.80;;
47167;SDS011;32931;47.778;17.806;2023-03-01T16:17:14;22.67;;;13.13;;
47167;SDS011;32931;47.778;17.806;2023-03-01T16:19:40;21.52;;;12.73;;
47167;SDS011;32931;47.778;17.806;2023-03-01T16:22:08;21.92;;;12.80;;
47167;SDS011;32931;47.778;17.806;2023-03-01T16:24:35;23.17;;;12.57;;
47167;SDS011;32931;47.778;17.806;2023-03-01T16:27:02;21.00;;;13.75;;
47167;SDS011;32931;47.778;17.806;2023-03-01T16:29:29;21.50;;;13.23;;
47167;SDS011;32931;47.778;17.806;2023-03-01T16:31:55;23.35;;;13.13;;
47167;SDS011;32931;47.778;17.806;2023-03-01T16:34:21;25.88;;;13.50;;
47167;SDS011;32931;47.778;17.806;2023-03-01T16:36:48;26.13;;;14.38;;
47167;SDS011;32931;47.778;17.806;2023-03-01T16:39:14;21.80;;;13.63;;
47167;SDS011;32931;47.778;17.806;2023-03-01T16:41:41;23.55;;;14.48;;
47167;SDS011;32931;47.778;17.806;2023-03-01T16:44:08;23.23;;;13.02;;